Time;durP1;ratioP1;P1;durP2;ratioP2;P2;SDS_P1;SDS_P2;PMS_P1;PMS_P2;Temp;Humidity;BMP_temperature;BMP_pressure;BME280_temperature;BME280_humidity;BME280_pressure;Samples;Min_cycle;Max_cycle;Signal;HPM_P1;HPM_P2
2023/09/02 00:02:01;;;;;;;39.35;15.07;;;16.40;99.90;;;;;;5007034;28;20042;-72
2023/09/02 00:04:28;;;;;;;44.67;17.60;;;16.40;99.90;;;;;;5007720;28;20037;-73
2023/09/02 00:06:54;;;;;;;49.33;17.58;;;16.30;99.90;;;;;;5007223;28;20583;-74
2023/09/02 00:09:19;;;;;;;43.90;15.68;;;16.30;99.90;;;;;;5007172;28;20504;-73
2023/09/02 00:11:45;;;;;;;38.85;15.10;;;16.30;99.90;;;;;;5007067;28;20037;-74
2023/09/02 00:14:11;;;;;;;45.75;17.20;;;16.30;99.90;;;;;;5007312;28;20053;-74
2023/09/02 00:16:37;;;;;;;44.20;17.67;;;16.30;99.90;;;;;;5008032;28;20032;-73
2023/09/02 00:19:04;;;;;;;38.03;15.30;;;16.20;99.90;;;;;;5007472;28;20117;-74
2023/09/02 00:21:31;;;;;;;42.80;16.73;;;16.20;99.90;;;;;;5006156;28;20038;-74
2023/09/02 00:24:06;;;;;;;42.60;16.27;;;16.20;99.90;;;;;;5007676;28;20124;-73
2023/09/02 00:26:32;;;;;;;37.53;15.90;;;16.20;99.90;;;;;;5007493;28;20038;-72
2023/09/02 00:28:59;;;;;;;36.63;15.27;;;16.20;99.90;;;;;;5007346;28;20037;-74
2023/09/02 00:31:26;;;;;;;41.85;16.40;;;16.10;99.90;;;;;;5007049;28;20042;-73
2023/09/02 00:33:52;;;;;;;36.58;15.60;;;16.10;99.90;;;;;;5007053;28;20033;-73
2023/09/02 00:36:17;;;;;;;43.88;15.65;;;16.10;99.90;;;;;;5007298;28;20034;-74
2023/09/02 00:38:43;;;;;;;39.25;16.05;;;16.10;99.90;;;;;;5007107;28;20044;-74
2023/09/02 00:41:13;;;;;;;41.10;15.25;;;16.10;99.90;;;;;;5007161;28;20038;-73
2023/09/02 00:43:39;;;;;;;39.22;15.65;;;16.10;99.90;;;;;;5005619;28;20092;-73
2023/09/02 00:46:05;;;;;;;44.22;15.23;;;16.00;99.90;;;;;;5007249;28;20034;-72
2023/09/02 00:48:31;;;;;;;44.65;17.15;;;16.00;99.90;;;;;;5007150;28;20042;-75
2023/09/02 00:50:57;;;;;;;39.83;15.38;;;16.00;99.90;;;;;;5005549;28;20034;-73
2023/09/02 00:53:24;;;;;;;43.97;16.10;;;16.00;99.90;;;;;;5006966;28;20473;-72
2023/09/02 00:55:51;;;;;;;45.22;17.85;;;15.90;99.90;;;;;;5007111;28;20547;-73
2023/09/02 00:58:17;;;;;;;44.25;16.40;;;15.90;99.90;;;;;;5010649;28;20034;-75
2023/09/02 01:00:44;;;;;;;46.15;15.35;;;15.90;99.90;;;;;;5007087;28;20026;-72
2023/09/02 01:03:10;;;;;;;39.50;16.05;;;16.00;99.90;;;;;;5006852;28;20041;-74
2023/09/02 01:05:36;;;;;;;46.33;16.63;;;15.90;99.90;;;;;;5007562;28;20056;-72
2023/09/02 01:08:03;;;;;;;36.72;14.65;;;15.90;99.90;;;;;;5009643;28;20060;-74
2023/09/02 01:10:31;;;;;;;42.75;15.27;;;15.80;99.90;;;;;;5011092;28;20040;-74
2023/09/02 01:12:57;;;;;;;43.35;15.85;;;15.80;99.90;;;;;;5010013;28;20034;-72
2023/09/02 01:15:23;;;;;;;42.50;15.43;;;15.80;99.90;;;;;;5009475;28;20730;-73
2023/09/02 01:17:49;;;;;;;41.60;14.88;;;15.80;99.90;;;;;;5008704;28;20053;-72
2023/09/02 01:20:17;;;;;;;41.83;14.73;;;15.80;99.90;;;;;;5008924;28;20080;-74
2023/09/02 01:23:01;;;;;;;42.03;16.17;;;15.70;99.90;;;;;;5018220;28;20053;-72
2023/09/02 01:25:56;;;;;;;41.33;15.63;;;15.70;99.90;;;;;;5014321;28;20034;-72
2023/09/02 01:28:28;;;;;;;44.17;15.57;;;15.70;99.90;;;;;;5018606;28;20021;-73
2023/09/02 01:30:55;;;;;;;46.03;15.60;;;15.70;99.90;;;;;;5011378;28;20038;-71
2023/09/02 01:33:25;;;;;;;40.17;14.85;;;15.70;99.90;;;;;;5009717;28;20037;-73
2023/09/02 01:35:52;;;;;;;41.47;15.70;;;15.70;99.90;;;;;;5010187;28;20116;-73
2023/09/02 01:38:21;;;;;;;44.65;16.80;;;15.70;99.90;;;;;;5009113;28;20389;-72
2023/09/02 01:40:50;;;;;;;42.45;15.45;;;15.70;99.90;;;;;;5008259;28;20660;-72
2023/09/02 01:43:20;;;;;;;41.92;16.58;;;15.70;99.90;;;;;;5009853;28;20049;-73
2023/09/02 01:45:46;;;;;;;50.78;17.95;;;15.70;99.90;;;;;;5008285;28;20559;-72
2023/09/02 01:48:13;;;;;;;41.88;15.55;;;15.70;99.90;;;;;;5008525;28;20087;-73
2023/09/02 01:50:40;;;;;;;47.85;17.25;;;15.70;99.90;;;;;;5009825;28;20026;-73
2023/09/02 01:53:05;;;;;;;45.47;17.15;;;15.70;99.90;;;;;;5009767;28;20038;-76
2023/09/02 01:55:32;;;;;;;45.85;16.45;;;15.70;99.90;;;;;;5010157;28;20026;-72
2023/09/02 01:57:59;;;;;;;46.25;16.10;;;15.70;99.90;;;;;;5019985;28;20068;-72
2023/09/02 02:00:25;;;;;;;47.70;15.15;;;15.70;99.90;;;;;;5008441;28;20038;-74
2023/09/02 02:02:53;;;;;;;51.80;18.52;;;15.70;99.90;;;;;;5009440;28;20044;-72
2023/09/02 02:05:24;;;;;;;40.10;14.68;;;15.70;99.90;;;;;;5009754;28;20041;-72
2023/09/02 02:07:58;;;;;;;44.13;15.60;;;15.70;99.90;;;;;;5009018;28;20613;-73
2023/09/02 02:10:27;;;;;;;45.20;15.40;;;15.70;99.90;;;;;;5009589;28;20030;-72
2023/09/02 02:12:53;;;;;;;36.85;14.30;;;15.70;99.90;;;;;;5008994;28;20084;-74
2023/09/02 02:15:18;;;;;;;42.40;15.25;;;15.60;99.90;;;;;;5009508;28;20112;-75
2023/09/02 02:17:44;;;;;;;46.45;16.02;;;15.60;99.90;;;;;;5009170;28;20056;-72
2023/09/02 02:20:10;;;;;;;47.00;15.68;;;15.70;99.90;;;;;;5008843;28;20040;-73
2023/09/02 02:22:36;;;;;;;42.05;15.52;;;15.70;99.90;;;;;;5009639;28;20070;-73
2023/09/02 02:25:01;;;;;;;42.00;15.25;;;15.70;99.90;;;;;;5007726;28;20084;-74
2023/09/02 02:27:27;;;;;;;47.92;16.05;;;15.70;99.90;;;;;;5009232;28;20087;-75
2023/09/02 02:29:53;;;;;;;47.80;14.95;;;15.70;99.90;;;;;;5007722;28;20041;-73
2023/09/02 02:32:19;;;;;;;46.75;16.95;;;15.80;99.90;;;;;;5008899;28;20030;-73
2023/09/02 02:34:45;;;;;;;52.05;16.70;;;15.80;99.90;;;;;;5009114;28;20061;-73
2023/09/02 02:37:10;;;;;;;44.80;16.73;;;15.90;99.90;;;;;;5007623;28;20064;-72
2023/09/02 02:39:36;;;;;;;52.22;18.38;;;15.90;99.90;;;;;;5009281;28;20037;-74
2023/09/02 02:42:02;;;;;;;48.75;16.88;;;15.90;99.90;;;;;;5008673;28;20038;-73
2023/09/02 02:44:27;;;;;;;66.57;17.58;;;16.00;99.90;;;;;;5008727;28;20034;-72
2023/09/02 02:46:53;;;;;;;81.43;19.00;;;15.90;99.90;;;;;;5009082;28;20516;-73
2023/09/02 02:49:18;;;;;;;45.20;15.13;;;16.00;99.90;;;;;;5008969;28;20180;-75
2023/09/02 02:51:44;;;;;;;109.38;19.35;;;16.00;99.90;;;;;;5008237;28;20068;-72
2023/09/02 02:54:09;;;;;;;122.38;20.55;;;16.10;99.90;;;;;;5008759;28;20041;-73
2023/09/02 02:56:35;;;;;;;102.97;18.75;;;16.10;99.90;;;;;;5009046;28;20049;-72
2023/09/02 02:59:00;;;;;;;58.17;17.05;;;16.10;99.90;;;;;;5015194;28;20180;-73
2023/09/02 03:03:58;;;;;;;143.85;19.88;;;16.10;99.90;;;;;;5016548;28;20117;-72
2023/09/02 03:06:23;;;;;;;75.18;16.20;;;16.00;99.90;;;;;;5018708;28;20392;-72
2023/09/02 03:08:49;;;;;;;49.67;15.63;;;16.10;99.90;;;;;;5022025;28;20037;-70
2023/09/02 03:11:14;;;;;;;38.47;14.27;;;16.00;99.90;;;;;;5015894;28;20037;-71
2023/09/02 03:13:40;;;;;;;111.35;19.35;;;16.00;99.90;;;;;;5028103;28;20044;-72
2023/09/02 03:16:06;;;;;;;51.03;14.55;;;16.10;99.90;;;;;;5021036;28;20033;-72
2023/09/02 03:18:32;;;;;;;109.45;19.13;;;16.00;99.90;;;;;;5019713;28;20055;-72
2023/09/02 03:21:02;;;;;;;96.70;18.33;;;16.10;99.90;;;;;;5018711;28;20085;-71
2023/09/02 03:23:28;;;;;;;47.08;14.68;;;16.10;99.90;;;;;;5015892;28;20046;-71
2023/09/02 03:25:53;;;;;;;76.22;16.73;;;16.00;99.90;;;;;;5021673;28;20041;-72
2023/09/02 03:28:19;;;;;;;78.85;15.93;;;16.00;99.90;;;;;;5022511;28;20037;-74
2023/09/02 03:30:45;;;;;;;80.85;15.88;;;16.00;99.90;;;;;;5017872;28;20065;-70
2023/09/02 03:33:12;;;;;;;62.10;14.82;;;16.10;99.90;;;;;;5019272;28;20065;-71
2023/09/02 03:35:38;;;;;;;81.38;15.35;;;16.10;99.90;;;;;;5015605;28;20037;-73
2023/09/02 03:38:04;;;;;;;152.95;20.50;;;16.00;99.90;;;;;;5018634;28;20037;-72
2023/09/02 03:40:30;;;;;;;63.95;13.38;;;16.00;99.90;;;;;;5018182;28;20039;-72
2023/09/02 03:42:56;;;;;;;75.10;15.15;;;16.10;99.90;;;;;;5012917;28;20497;-72
2023/09/02 03:45:21;;;;;;;144.10;19.60;;;16.10;99.90;;;;;;5017421;28;20080;-71
2023/09/02 03:47:47;;;;;;;135.00;18.58;;;16.10;99.90;;;;;;5015057;28;20033;-72
2023/09/02 03:50:12;;;;;;;68.85;14.85;;;16.10;99.90;;;;;;5015348;28;20026;-71
2023/09/02 03:52:38;;;;;;;65.07;14.77;;;16.10;99.90;;;;;;5027854;28;20480;-70
2023/09/02 03:55:04;;;;;;;99.00;16.67;;;16.10;99.90;;;;;;5019328;28;20488;-71
2023/09/02 03:57:30;;;;;;;63.20;14.80;;;16.10;99.90;;;;;;5017030;28;20112;-69
2023/09/02 03:59:56;;;;;;;45.45;13.60;;;16.10;99.90;;;;;;5022972;28;20040;-72
2023/09/02 04:02:21;;;;;;;72.32;13.80;;;16.10;99.90;;;;;;5022865;28;20034;-71
2023/09/02 04:04:47;;;;;;;51.65;12.95;;;16.10;99.90;;;;;;5017881;28;20042;-70
2023/09/02 04:07:12;;;;;;;90.00;13.95;;;16.10;99.90;;;;;;5018416;28;20113;-71
2023/09/02 04:09:38;;;;;;;106.00;15.73;;;16.00;99.90;;;;;;5015490;28;20445;-72
2023/09/02 04:12:04;;;;;;;53.55;12.88;;;16.00;99.90;;;;;;5015733;28;20109;-72
2023/09/02 04:14:30;;;;;;;27.17;11.05;;;16.00;99.90;;;;;;5011343;28;20038;-71
2023/09/02 04:16:55;;;;;;;74.30;13.52;;;16.00;99.90;;;;;;5011110;28;20034;-72
2023/09/02 04:19:22;;;;;;;86.07;13.60;;;15.90;99.90;;;;;;5015555;28;20042;-72
2023/09/02 04:21:49;;;;;;;72.38;12.75;;;15.90;99.90;;;;;;5011926;28;20121;-72
2023/09/02 04:24:14;;;;;;;22.90;8.30;;;15.90;99.90;;;;;;5011453;28;20041;-72
2023/09/02 04:26:40;;;;;;;74.40;12.55;;;15.90;99.90;;;;;;5015430;28;20038;-71
2023/09/02 04:29:05;;;;;;;45.65;10.63;;;15.90;99.90;;;;;;5023431;28;20033;-72
2023/09/02 04:31:31;;;;;;;60.78;10.85;;;15.90;99.90;;;;;;5021425;28;20126;-72
2023/09/02 04:33:57;;;;;;;32.33;9.40;;;15.90;99.90;;;;;;5010406;28;20038;-70
2023/09/02 04:36:23;;;;;;;74.93;11.05;;;15.80;99.90;;;;;;5013625;28;20034;-71
2023/09/02 04:38:51;;;;;;;35.38;8.63;;;15.80;99.90;;;;;;5021011;28;20037;-72
2023/09/02 04:41:16;;;;;;;52.50;8.93;;;15.80;99.90;;;;;;5017210;28;20504;-71
2023/09/02 04:43:42;;;;;;;48.28;10.05;;;15.80;99.90;;;;;;5018873;28;20041;-71
2023/09/02 04:46:08;;;;;;;48.38;9.90;;;15.80;99.90;;;;;;5019361;28;20531;-71
2023/09/02 04:48:34;;;;;;;21.63;7.60;;;15.80;99.90;;;;;;5019247;28;20034;-72
2023/09/02 04:50:59;;;;;;;42.17;9.23;;;15.80;99.90;;;;;;5019185;28;20120;-72
2023/09/02 04:53:25;;;;;;;61.72;10.65;;;15.80;99.90;;;;;;5021438;28;20055;-71
2023/09/02 04:55:51;;;;;;;22.95;7.90;;;15.80;99.90;;;;;;5022994;28;20052;-71
2023/09/02 04:58:17;;;;;;;29.52;8.45;;;15.70;99.90;;;;;;5022913;28;20476;-72
2023/09/02 05:00:43;;;;;;;33.83;8.70;;;15.70;99.90;;;;;;5015659;28;20065;-72
2023/09/02 05:03:09;;;;;;;32.58;9.20;;;15.80;99.90;;;;;;5017589;28;20042;-72
2023/09/02 05:05:35;;;;;;;66.13;12.50;;;15.80;99.90;;;;;;5018997;28;20033;-71
2023/09/02 05:08:02;;;;;;;32.90;8.73;;;15.70;99.90;;;;;;5022833;28;20401;-71
2023/09/02 05:10:28;;;;;;;42.92;10.10;;;15.80;99.90;;;;;;5017097;28;20463;-72
2023/09/02 05:12:53;;;;;;;43.58;9.32;;;15.70;99.90;;;;;;5016414;28;20046;-72
2023/09/02 05:15:19;;;;;;;42.92;9.90;;;15.80;99.90;;;;;;5018807;28;20047;-71
2023/09/02 05:17:45;;;;;;;54.55;10.52;;;15.80;99.90;;;;;;5014655;28;20038;-71
2023/09/02 05:20:12;;;;;;;44.70;10.15;;;15.80;99.90;;;;;;5016856;28;20430;-72
2023/09/02 05:22:37;;;;;;;23.23;8.50;;;15.80;99.90;;;;;;5017596;28;20038;-71
2023/09/02 05:25:04;;;;;;;55.00;11.05;;;15.80;99.90;;;;;;5022395;28;20101;-71
2023/09/02 05:27:30;;;;;;;44.65;8.00;;;15.80;99.90;;;;;;5021304;28;20033;-72
2023/09/02 05:29:56;;;;;;;39.17;9.00;;;15.90;99.90;;;;;;5018675;28;20508;-71
2023/09/02 05:32:22;;;;;;;82.80;11.32;;;15.80;99.90;;;;;;5026388;28;20057;-72
2023/09/02 05:34:47;;;;;;;54.97;9.73;;;15.80;99.90;;;;;;5018219;28;20052;-72
2023/09/02 05:37:13;;;;;;;32.05;7.43;;;15.80;99.90;;;;;;5015253;28;20061;-72
2023/09/02 05:39:39;;;;;;;64.72;10.23;;;15.80;99.90;;;;;;5020934;28;20120;-72
2023/09/02 05:42:05;;;;;;;58.75;10.70;;;15.90;99.90;;;;;;5021525;28;20025;-70
2023/09/02 05:44:32;;;;;;;71.28;12.10;;;15.90;99.90;;;;;;5017874;28;20052;-71
2023/09/02 05:46:58;;;;;;;42.20;10.20;;;15.90;99.90;;;;;;5019579;28;20057;-71
2023/09/02 05:49:23;;;;;;;37.20;10.02;;;16.00;99.90;;;;;;5021775;28;20079;-72
2023/09/02 05:51:49;;;;;;;72.30;12.70;;;16.00;99.90;;;;;;5021793;28;20045;-71
2023/09/02 05:54:14;;;;;;;30.38;9.20;;;16.00;99.90;;;;;;5012975;28;20037;-72
2023/09/02 05:56:40;;;;;;;75.72;13.15;;;16.00;99.90;;;;;;5018514;28;20068;-71
2023/09/02 05:59:06;;;;;;;43.42;10.20;;;16.10;99.90;;;;;;5021951;28;20083;-72
2023/09/02 06:01:31;;;;;;;46.22;10.88;;;16.10;99.90;;;;;;5013923;28;20073;-72
2023/09/02 06:03:57;;;;;;;49.05;10.98;;;16.10;99.90;;;;;;5016183;28;20030;-72
2023/09/02 06:06:24;;;;;;;20.80;8.77;;;16.10;99.90;;;;;;5014697;28;20068;-70
2023/09/02 06:08:49;;;;;;;43.55;10.15;;;16.20;99.90;;;;;;5014725;28;20038;-72
2023/09/02 06:11:15;;;;;;;74.82;13.07;;;16.20;99.90;;;;;;5021322;28;20042;-72
2023/09/02 06:13:41;;;;;;;31.30;9.20;;;16.20;99.90;;;;;;5018337;28;20045;-71
2023/09/02 06:16:07;;;;;;;24.98;9.13;;;16.20;99.90;;;;;;5020875;28;20022;-71
2023/09/02 06:18:34;;;;;;;74.57;12.73;;;16.20;99.90;;;;;;5019958;28;20543;-72
2023/09/02 06:21:13;;;;;;;23.50;8.80;;;16.30;99.90;;;;;;5015756;28;20046;-72
2023/09/02 06:23:44;;;;;;;22.42;9.77;;;16.30;99.90;;;;;;5022926;28;20075;-72
2023/09/02 06:26:11;;;;;;;;;;;16.20;99.90;;;;;;5014319;28;20121;-70
2023/09/02 06:28:37;;;;;;;29.60;7.95;;;16.20;99.90;;;;;;5021218;28;20404;-72
2023/09/02 06:31:06;;;;;;;46.65;10.05;;;16.20;99.90;;;;;;5014925;28;20034;-72
2023/09/02 06:33:32;;;;;;;51.42;10.30;;;16.20;99.90;;;;;;5016393;28;20072;-72
2023/09/02 06:35:58;;;;;;;41.63;8.65;;;16.20;99.90;;;;;;5015512;28;20065;-72
2023/09/02 06:38:23;;;;;;;30.88;8.63;;;16.20;99.90;;;;;;5020684;28;20030;-72
2023/09/02 06:40:49;;;;;;;38.40;8.90;;;16.20;99.90;;;;;;5016708;28;21457;-72
2023/09/02 06:43:14;;;;;;;35.78;9.32;;;16.20;99.90;;;;;;5009673;28;20034;-72
2023/09/02 06:45:40;;;;;;;35.17;9.77;;;16.20;99.90;;;;;;5014204;28;20034;-73
2023/09/02 06:48:06;;;;;;;31.45;9.73;;;16.20;99.90;;;;;;5016729;28;20116;-74
2023/09/02 06:50:31;;;;;;;19.63;7.78;;;16.20;99.90;;;;;;5018631;28;20493;-71
2023/09/02 06:52:57;;;;;;;50.58;11.63;;;16.30;99.90;;;;;;5020722;28;20029;-72
2023/09/02 06:55:23;;;;;;;24.00;9.15;;;16.30;99.90;;;;;;5017435;28;20033;-71
2023/09/02 06:57:48;;;;;;;29.17;10.52;;;16.30;99.90;;;;;;5016526;28;20084;-71
2023/09/02 07:00:14;;;;;;;24.67;9.82;;;16.40;99.90;;;;;;5018038;28;20030;-70
2023/09/02 07:02:40;;;;;;;26.63;8.90;;;16.40;99.90;;;;;;5012835;28;20042;-72
2023/09/02 07:05:06;;;;;;;17.58;7.70;;;16.50;99.90;;;;;;5026619;28;20033;-74
2023/09/02 07:07:32;;;;;;;19.20;8.13;;;16.50;99.90;;;;;;5018544;28;20477;-71
2023/09/02 07:09:58;;;;;;;23.42;9.10;;;16.50;99.90;;;;;;5019136;28;20026;-72
2023/09/02 07:12:24;;;;;;;28.15;8.07;;;16.50;99.90;;;;;;5014384;28;20038;-72
2023/09/02 07:14:49;;;;;;;25.52;8.68;;;16.50;99.90;;;;;;5015961;28;20046;-72
2023/09/02 07:17:15;;;;;;;19.13;8.02;;;16.60;99.90;;;;;;5017099;28;20084;-70
2023/09/02 07:19:40;;;;;;;18.70;7.85;;;16.60;99.90;;;;;;5014901;28;20048;-71
2023/09/02 07:22:06;;;;;;;17.52;6.97;;;16.50;99.90;;;;;;5007438;28;20033;-71
2023/09/02 07:24:31;;;;;;;20.83;8.57;;;16.60;99.90;;;;;;5016017;28;20034;-72
2023/09/02 07:26:57;;;;;;;20.00;8.20;;;16.60;99.90;;;;;;5014697;28;20563;-72
2023/09/02 07:29:23;;;;;;;19.55;8.07;;;16.70;99.90;;;;;;5014441;28;20451;-71
2023/09/02 07:31:48;;;;;;;21.50;8.70;;;16.70;99.90;;;;;;5015545;28;20085;-72
2023/09/02 07:34:14;;;;;;;19.15;7.88;;;16.70;99.90;;;;;;5013312;28;20252;-72
2023/09/02 07:36:41;;;;;;;22.10;8.88;;;16.70;99.90;;;;;;5017005;28;20481;-72
2023/09/02 07:39:06;;;;;;;23.83;9.38;;;16.70;99.90;;;;;;5022694;28;20136;-74
2023/09/02 07:41:32;;;;;;;20.33;8.73;;;16.80;99.90;;;;;;5014918;28;20056;-70
2023/09/02 07:43:57;;;;;;;23.25;8.73;;;16.80;99.90;;;;;;5014640;28;20034;-72
2023/09/02 07:46:23;;;;;;;27.55;9.13;;;16.90;99.90;;;;;;5014618;28;20046;-72
2023/09/02 07:48:50;;;;;;;22.00;8.93;;;16.90;99.90;;;;;;5009583;28;20034;-72
2023/09/02 07:51:17;;;;;;;28.45;10.98;;;17.00;99.90;;;;;;5015722;28;20083;-71
2023/09/02 07:53:43;;;;;;;23.33;9.13;;;17.00;99.90;;;;;;5009807;28;20101;-70
2023/09/02 07:56:09;;;;;;;25.35;9.77;;;17.00;99.90;;;;;;5012380;28;20033;-71
2023/09/02 07:58:34;;;;;;;25.10;9.73;;;17.10;99.90;;;;;;5014385;28;20053;-71
2023/09/02 08:01:00;;;;;;;24.42;9.93;;;17.10;99.90;;;;;;5015690;28;20052;-71
2023/09/02 08:03:26;;;;;;;24.83;10.07;;;17.10;99.90;;;;;;5013722;28;21142;-72
2023/09/02 08:05:51;;;;;;;24.85;8.90;;;17.10;99.90;;;;;;5012906;28;20072;-71
2023/09/02 08:08:17;;;;;;;24.50;9.02;;;17.20;99.90;;;;;;5017552;28;20045;-71
2023/09/02 08:10:42;;;;;;;21.63;9.10;;;17.30;99.90;;;;;;5021161;28;20034;-71
2023/09/02 08:13:08;;;;;;;24.10;10.02;;;17.40;99.90;;;;;;5013308;28;20152;-71
2023/09/02 08:15:37;;;;;;;18.90;8.43;;;17.50;99.90;;;;;;5016696;28;20032;-71
2023/09/02 08:18:03;;;;;;;22.08;9.40;;;17.50;99.90;;;;;;5012094;28;20497;-71
2023/09/02 08:20:30;;;;;;;20.00;8.95;;;17.60;99.90;;;;;;5017427;28;20037;-71
2023/09/02 08:22:55;;;;;;;20.73;9.05;;;17.60;99.90;;;;;;5015903;28;20040;-71
2023/09/02 08:25:21;;;;;;;17.98;8.85;;;17.60;99.90;;;;;;5012392;28;20026;-71
2023/09/02 08:27:47;;;;;;;24.45;10.00;;;17.60;99.90;;;;;;5017730;28;20547;-72
2023/09/02 08:30:13;;;;;;;25.05;10.23;;;17.70;99.90;;;;;;5015719;28;20033;-72
2023/09/02 08:32:39;;;;;;;19.05;8.95;;;17.80;99.90;;;;;;5015786;28;20092;-71
2023/09/02 08:35:06;;;;;;;20.83;9.57;;;17.80;99.90;;;;;;5013845;28;20042;-71
2023/09/02 08:37:31;;;;;;;23.58;10.15;;;17.90;99.90;;;;;;5019571;28;20117;-71
2023/09/02 08:39:58;;;;;;;24.23;9.63;;;17.90;99.90;;;;;;5008879;28;20132;-71
2023/09/02 08:42:25;;;;;;;19.67;8.98;;;18.00;99.90;;;;;;5008979;28;20141;-72
2023/09/02 08:44:53;;;;;;;23.17;9.73;;;18.00;99.90;;;;;;5016837;28;20065;-72
2023/09/02 08:47:20;;;;;;;22.48;10.35;;;18.10;99.90;;;;;;5010511;28;20091;-71
2023/09/02 08:49:46;;;;;;;21.20;9.90;;;18.10;99.90;;;;;;5009361;28;20109;-72
2023/09/02 08:52:12;;;;;;;19.33;9.68;;;18.10;99.90;;;;;;5010123;28;20038;-72
2023/09/02 08:54:39;;;;;;;23.38;10.27;;;18.00;99.90;;;;;;5015847;28;20042;-71
2023/09/02 08:57:06;;;;;;;18.13;8.55;;;18.10;99.90;;;;;;5015232;28;20030;-71
2023/09/02 08:59:33;;;;;;;21.23;9.85;;;18.00;99.90;;;;;;5023569;28;20095;-71
2023/09/02 09:02:00;;;;;;;25.33;10.18;;;18.00;99.90;;;;;;5015837;28;20759;-71
2023/09/02 09:04:32;;;;;;;21.27;8.98;;;18.10;99.90;;;;;;5021827;28;20132;-71
2023/09/02 09:06:58;;;;;;;20.98;8.73;;;18.00;99.90;;;;;;5009781;28;20045;-72
2023/09/02 09:09:25;;;;;;;25.20;10.80;;;18.10;99.90;;;;;;5018777;28;20033;-71
2023/09/02 09:11:51;;;;;;;19.50;9.70;;;18.10;99.90;;;;;;5010773;28;20038;-71
2023/09/02 09:14:23;;;;;;;21.92;10.27;;;18.20;99.90;;;;;;5018146;28;20095;-71
2023/09/02 09:16:52;;;;;;;23.30;10.10;;;18.20;99.90;;;;;;5012960;28;20034;-70
2023/09/02 09:19:19;;;;;;;20.70;9.43;;;18.20;99.90;;;;;;5017074;28;20108;-72
2023/09/02 09:21:45;;;;;;;22.90;10.25;;;18.20;99.90;;;;;;5016716;28;20477;-71
2023/09/02 09:24:14;;;;;;;18.70;9.27;;;18.30;99.90;;;;;;5012461;28;20060;-73
2023/09/02 09:26:45;;;;;;;20.05;9.25;;;18.30;99.90;;;;;;5013032;28;20570;-72
2023/09/02 09:29:12;;;;;;;20.52;9.25;;;18.30;99.90;;;;;;5016210;28;20034;-72
2023/09/02 09:31:38;;;;;;;18.95;8.90;;;18.40;99.90;;;;;;5014535;28;20026;-72
2023/09/02 09:34:04;;;;;;;20.88;9.50;;;18.50;99.90;;;;;;5014007;28;20052;-72
2023/09/02 09:36:31;;;;;;;19.45;8.27;;;18.50;99.90;;;;;;5021782;28;20030;-72
2023/09/02 09:39:04;;;;;;;20.20;10.18;;;18.60;99.90;;;;;;5020974;28;20085;-73
2023/09/02 09:41:30;;;;;;;19.23;8.50;;;18.70;99.90;;;;;;5019537;28;20053;-70
2023/09/02 09:44:14;;;;;;;18.98;8.85;;;18.80;99.90;;;;;;5017788;28;20119;-71
2023/09/02 09:46:42;;;;;;;17.75;8.38;;;18.90;99.90;;;;;;5019289;28;20042;-72
2023/09/02 09:49:08;;;;;;;21.25;9.18;;;18.90;99.90;;;;;;5013460;28;20517;-72
2023/09/02 09:51:34;;;;;;;21.30;8.75;;;18.90;99.90;;;;;;5010151;28;20040;-72
2023/09/02 09:54:00;;;;;;;19.38;9.35;;;18.90;99.90;;;;;;5017697;28;20037;-71
2023/09/02 09:56:25;;;;;;;19.27;8.45;;;18.90;99.90;;;;;;5019455;28;20401;-73
2023/09/02 09:58:51;;;;;;;20.92;9.55;;;18.90;99.90;;;;;;5027317;28;20413;-71
2023/09/02 10:01:22;;;;;;;19.92;9.05;;;18.80;99.90;;;;;;5016933;28;20087;-72
2023/09/02 10:03:48;;;;;;;19.38;9.32;;;18.80;99.90;;;;;;5008302;28;20057;-71
2023/09/02 10:06:14;;;;;;;21.13;9.85;;;18.70;99.90;;;;;;5015846;28;20030;-71
2023/09/02 10:08:53;;;;;;;20.98;9.00;;;18.80;99.90;;;;;;5015060;28;20056;-71
2023/09/02 10:11:23;;;;;;;18.43;8.87;;;18.70;99.90;;;;;;5023275;28;20034;-71
2023/09/02 10:13:51;;;;;;;20.77;8.65;;;18.80;99.90;;;;;;5017322;28;20052;-72
2023/09/02 10:16:17;;;;;;;21.40;9.00;;;18.90;99.90;;;;;;5021253;28;20030;-72
2023/09/02 10:18:45;;;;;;;26.08;11.55;;;18.90;99.90;;;;;;5018876;28;20401;-73
2023/09/02 10:21:13;;;;;;;21.63;10.60;;;19.00;99.90;;;;;;5021780;28;20473;-72
2023/09/02 10:23:43;;;;;;;19.38;10.13;;;19.00;99.90;;;;;;5013669;28;20037;-72
2023/09/02 10:26:17;;;;;;;17.90;9.13;;;19.00;99.90;;;;;;5017159;28;20075;-71
2023/09/02 10:28:46;;;;;;;21.90;10.10;;;19.10;99.90;;;;;;5010738;28;20115;-71
2023/09/02 10:31:22;;;;;;;22.85;9.77;;;19.20;99.90;;;;;;5006292;28;20044;-71
2023/09/02 10:34:09;;;;;;;23.60;9.45;;;19.30;99.90;;;;;;5015687;28;20056;-72
2023/09/02 10:36:41;;;;;;;21.60;9.35;;;19.30;99.90;;;;;;5017697;28;20040;-72
2023/09/02 10:39:16;;;;;;;19.17;8.85;;;19.30;99.90;;;;;;5013563;28;20098;-72
2023/09/02 10:41:44;;;;;;;21.42;8.63;;;19.30;99.90;;;;;;5010736;28;20082;-71
2023/09/02 10:44:10;;;;;;;16.48;7.78;;;19.30;99.90;;;;;;5019916;28;20034;-73
2023/09/02 10:46:37;;;;;;;17.23;8.38;;;19.40;99.90;;;;;;5017793;28;20033;-72
2023/09/02 10:49:03;;;;;;;18.17;7.75;;;19.50;99.90;;;;;;5018082;28;20038;-71
2023/09/02 10:51:29;;;;;;;17.50;8.35;;;19.60;99.90;;;;;;5019569;28;20037;-71
2023/09/02 10:53:55;;;;;;;18.50;8.90;;;19.70;99.90;;;;;;5012060;28;20045;-72
2023/09/02 10:56:38;;;;;;;17.52;8.82;;;19.70;99.90;;;;;;5018877;28;20511;-72
2023/09/02 10:59:06;;;;;;;18.38;8.90;;;19.70;99.90;;;;;;5014749;28;20038;-73
2023/09/02 11:01:45;;;;;;;18.45;8.90;;;19.60;99.90;;;;;;5013152;28;20029;-72
2023/09/02 11:04:11;;;;;;;17.20;7.70;;;19.60;99.90;;;;;;5013546;28;20107;-72
2023/09/02 11:06:57;;;;;;;17.88;7.85;;;19.60;99.90;;;;;;5016386;28;20278;-72
2023/09/02 11:09:50;;;;;;;13.38;6.68;;;19.70;99.90;;;;;;5013854;28;20044;-73
2023/09/02 11:12:15;;;;;;;13.75;7.15;;;19.80;99.90;;;;;;5017868;28;20037;-72
2023/09/02 11:14:41;;;;;;;14.13;6.38;;;19.90;99.90;;;;;;5011135;28;20034;-72
2023/09/02 11:17:29;;;;;;;16.10;6.90;;;19.90;99.90;;;;;;5017958;28;20493;-71
2023/09/02 11:19:55;;;;;;;14.48;7.38;;;20.10;99.90;;;;;;5014415;28;20133;-71
2023/09/02 11:22:46;;;;;;;12.68;6.85;;;20.10;99.90;;;;;;5018180;28;20076;-70
2023/09/02 11:25:36;;;;;;;11.45;5.72;;;20.10;99.90;;;;;;5002440;28;20037;-72
2023/09/02 11:28:03;;;;;;;;;;;20.10;99.90;;;;;;5024532;28;20034;-72
2023/09/02 11:30:30;;;;;;;14.38;6.65;;;20.30;99.90;;;;;;5012188;28;19921;-72
2023/09/02 11:32:57;;;;;;;14.68;7.35;;;20.50;99.90;;;;;;5007010;28;20042;-72
2023/09/02 11:35:33;;;;;;;11.40;5.50;;;20.60;99.90;;;;;;5017104;28;20520;-72
2023/09/02 11:38:00;;;;;;;13.80;6.40;;;20.60;99.90;;;;;;5014224;28;20038;-73
2023/09/02 11:40:26;;;;;;;14.63;7.07;;;20.80;99.90;;;;;;5007227;28;20038;-72
2023/09/02 11:43:00;;;;;;;13.18;7.00;;;20.90;99.90;;;;;;5008831;28;20128;-73
2023/09/02 11:45:30;;;;;;;11.45;5.97;;;20.90;99.90;;;;;;5011908;28;20070;-71
2023/09/02 11:47:56;;;;;;;12.10;6.67;;;20.90;99.90;;;;;;5007571;28;20029;-73
2023/09/02 11:50:22;;;;;;;13.25;7.35;;;20.80;99.90;;;;;;5015762;28;20355;-72
2023/09/02 11:52:51;;;;;;;11.60;6.22;;;20.80;99.90;;;;;;5018116;28;20171;-71
2023/09/02 11:55:17;;;;;;;11.65;6.47;;;20.80;99.90;;;;;;5023501;28;20030;-71
2023/09/02 11:57:44;;;;;;;12.80;6.63;;;20.80;99.90;;;;;;5019042;28;21417;-71
2023/09/02 12:00:18;;;;;;;13.35;6.47;;;20.80;99.90;;;;;;5009048;28;20021;-70
2023/09/02 12:02:45;;;;;;;13.88;7.25;;;20.70;99.90;;;;;;5000640;28;20054;-71
2023/09/02 12:05:11;;;;;;;13.10;6.60;;;20.80;99.90;;;;;;5011259;28;20117;-71
2023/09/02 12:07:38;;;;;;;16.60;7.25;;;20.80;99.90;;;;;;5003253;28;20774;-72
2023/09/02 12:10:08;;;;;;;17.23;8.02;;;20.80;99.90;;;;;;5012162;28;20045;-71
2023/09/02 12:12:38;;;;;;;13.90;7.68;;;20.80;99.90;;;;;;5010224;28;20030;-71
2023/09/02 12:15:05;;;;;;;14.10;7.43;;;20.70;99.90;;;;;;5012627;28;20038;-71
2023/09/02 12:17:31;;;;;;;14.93;7.20;;;20.70;99.90;;;;;;5008948;28;20045;-71
2023/09/02 12:19:57;;;;;;;12.93;7.18;;;20.80;99.90;;;;;;5010499;28;20041;-71
2023/09/02 12:22:23;;;;;;;13.73;6.88;;;20.70;99.90;;;;;;5006199;28;20026;-71
2023/09/02 12:24:48;;;;;;;12.82;6.57;;;20.70;99.90;;;;;;5009327;28;20325;-71
2023/09/02 12:27:18;;;;;;;13.82;7.40;;;20.80;99.90;;;;;;5011215;28;20048;-71
2023/09/02 12:29:54;;;;;;;10.88;5.75;;;20.80;99.90;;;;;;5006483;28;20030;-72
2023/09/02 12:32:21;;;;;;;12.10;5.95;;;20.90;99.90;;;;;;5007108;28;20034;-71
2023/09/02 12:34:46;;;;;;;11.50;6.38;;;20.90;99.90;;;;;;5009892;28;20105;-74
2023/09/02 12:37:21;;;;;;;9.50;5.47;;;20.90;99.90;;;;;;5011112;28;20541;-70